sensor_id;sensor_type;location;lat;lon;timestamp;P1;durP1;ratioP1;P2;durP2;ratioP2
2434;SDS011;1228;51.022;6.764;2024-03-08T00:00:34;26.57;;;18.07;;
2434;SDS011;1228;51.022;6.764;2024-03-08T00:02:59;23.53;;;17.20;;
2434;SDS011;1228;51.022;6.764;2024-03-08T00:05:27;34.27;;;18.73;;
2434;SDS011;1228;51.022;6.764;2024-03-08T00:07:53;28.80;;;19.33;;
2434;SDS011;1228;51.022;6.764;2024-03-08T00:10:18;27.80;;;18.00;;
2434;SDS011;1228;51.022;6.764;2024-03-08T00:12:46;25.20;;;18.30;;
2434;SDS011;1228;51.022;6.764;2024-03-08T00:15:12;27.67;;;18.87;;
2434;SDS011;1228;51.022;6.764;2024-03-08T00:17:39;24.57;;;17.83;;
2434;SDS011;1228;51.022;6.764;2024-03-08T00:20:06;26.67;;;19.27;;
2434;SDS011;1228;51.022;6.764;2024-03-08T00:22:35;24.33;;;18.40;;
2434;SDS011;1228;51.022;6.764;2024-03-08T00:25:04;27.80;;;18.30;;
2434;SDS011;1228;51.022;6.764;2024-03-08T00:27:34;27.50;;;19.00;;
2434;SDS011;1228;51.022;6.764;2024-03-08T00:30:00;28.03;;;19.17;;
2434;SDS011;1228;51.022;6.764;2024-03-08T00:32:26;27.50;;;19.37;;
2434;SDS011;1228;51.022;6.764;2024-03-08T00:34:53;28.67;;;19.37;;
2434;SDS011;1228;51.022;6.764;2024-03-08T00:37:19;25.30;;;18.50;;
2434;SDS011;1228;51.022;6.764;2024-03-08T00:39:47;29.47;;;19.33;;
2434;SDS011;1228;51.022;6.764;2024-03-08T00:42:13;25.80;;;18.33;;
2434;SDS011;1228;51.022;6.764;2024-03-08T00:44:39;25.57;;;18.80;;
2434;SDS011;1228;51.022;6.764;2024-03-08T00:47:05;30.60;;;20.27;;
2434;SDS011;1228;51.022;6.764;2024-03-08T00:49:32;31.60;;;19.63;;
2434;SDS011;1228;51.022;6.764;2024-03-08T00:51:57;31.60;;;20.63;;
2434;SDS011;1228;51.022;6.764;2024-03-08T00:54:23;29.10;;;20.10;;
2434;SDS011;1228;51.022;6.764;2024-03-08T00:56:48;28.30;;;19.60;;
2434;SDS011;1228;51.022;6.764;2024-03-08T00:59:14;26.37;;;19.37;;
2434;SDS011;1228;51.022;6.764;2024-03-08T01:01:40;23.87;;;18.43;;
2434;SDS011;1228;51.022;6.764;2024-03-08T01:04:08;29.80;;;18.73;;
2434;SDS011;1228;51.022;6.764;2024-03-08T01:06:34;29.37;;;19.90;;
2434;SDS011;1228;51.022;6.764;2024-03-08T01:08:59;25.57;;;17.87;;
2434;SDS011;1228;51.022;6.764;2024-03-08T01:11:25;24.30;;;18.50;;
2434;SDS011;1228;51.022;6.764;2024-03-08T01:13:53;26.43;;;18.73;;
2434;SDS011;1228;51.022;6.764;2024-03-08T01:16:19;30.30;;;19.13;;
2434;SDS011;1228;51.022;6.764;2024-03-08T01:18:46;25.73;;;18.67;;
2434;SDS011;1228;51.022;6.764;2024-03-08T01:21:12;27.90;;;19.50;;
2434;SDS011;1228;51.022;6.764;2024-03-08T01:23:37;29.33;;;19.27;;
2434;SDS011;1228;51.022;6.764;2024-03-08T01:26:03;26.77;;;18.13;;
2434;SDS011;1228;51.022;6.764;2024-03-08T01:28:29;24.47;;;18.47;;
2434;SDS011;1228;51.022;6.764;2024-03-08T01:30:55;28.20;;;18.10;;
2434;SDS011;1228;51.022;6.764;2024-03-08T01:33:24;23.87;;;18.73;;
2434;SDS011;1228;51.022;6.764;2024-03-08T01:35:53;26.73;;;19.60;;
2434;SDS011;1228;51.022;6.764;2024-03-08T01:38:19;27.17;;;19.40;;
2434;SDS011;1228;51.022;6.764;2024-03-08T01:40:48;27.83;;;18.83;;
2434;SDS011;1228;51.022;6.764;2024-03-08T01:43:24;28.37;;;17.63;;
2434;SDS011;1228;51.022;6.764;2024-03-08T01:45:54;25.27;;;18.67;;
2434;SDS011;1228;51.022;6.764;2024-03-08T01:48:22;27.97;;;19.10;;
2434;SDS011;1228;51.022;6.764;2024-03-08T01:50:50;25.47;;;18.87;;
2434;SDS011;1228;51.022;6.764;2024-03-08T01:53:17;29.40;;;19.03;;
2434;SDS011;1228;51.022;6.764;2024-03-08T01:55:44;28.63;;;18.70;;
2434;SDS011;1228;51.022;6.764;2024-03-08T01:58:14;27.00;;;19.17;;
2434;SDS011;1228;51.022;6.764;2024-03-08T02:00:41;29.03;;;19.67;;
2434;SDS011;1228;51.022;6.764;2024-03-08T02:03:09;29.53;;;19.30;;
2434;SDS011;1228;51.022;6.764;2024-03-08T02:08:57;32.20;;;20.33;;
2434;SDS011;1228;51.022;6.764;2024-03-08T02:11:23;28.40;;;19.53;;
2434;SDS011;1228;51.022;6.764;2024-03-08T02:13:49;31.43;;;18.43;;
2434;SDS011;1228;51.022;6.764;2024-03-08T02:16:20;25.73;;;18.67;;
2434;SDS011;1228;51.022;6.764;2024-03-08T02:18:48;28.77;;;19.23;;
2434;SDS011;1228;51.022;6.764;2024-03-08T02:21:16;30.07;;;19.63;;
2434;SDS011;1228;51.022;6.764;2024-03-08T02:23:46;28.93;;;18.50;;
2434;SDS011;1228;51.022;6.764;2024-03-08T02:26:12;27.60;;;18.70;;
2434;SDS011;1228;51.022;6.764;2024-03-08T02:28:37;26.13;;;19.27;;
2434;SDS011;1228;51.022;6.764;2024-03-08T02:31:04;31.80;;;20.13;;
2434;SDS011;1228;51.022;6.764;2024-03-08T02:33:33;25.27;;;18.60;;
2434;SDS011;1228;51.022;6.764;2024-03-08T02:35:59;37.57;;;20.47;;
2434;SDS011;1228;51.022;6.764;2024-03-08T02:38:25;29.50;;;20.30;;
2434;SDS011;1228;51.022;6.764;2024-03-08T02:40:52;31.53;;;20.00;;
2434;SDS011;1228;51.022;6.764;2024-03-08T02:43:19;29.37;;;20.60;;
2434;SDS011;1228;51.022;6.764;2024-03-08T02:45:49;28.10;;;19.30;;
2434;SDS011;1228;51.022;6.764;2024-03-08T02:48:15;27.23;;;20.07;;
2434;SDS011;1228;51.022;6.764;2024-03-08T02:50:41;29.47;;;20.47;;
2434;SDS011;1228;51.022;6.764;2024-03-08T02:53:10;28.17;;;19.53;;
2434;SDS011;1228;51.022;6.764;2024-03-08T02:55:37;31.10;;;21.50;;
2434;SDS011;1228;51.022;6.764;2024-03-08T02:58:04;29.70;;;20.00;;
2434;SDS011;1228;51.022;6.764;2024-03-08T03:00:30;35.10;;;20.83;;
2434;SDS011;1228;51.022;6.764;2024-03-08T03:02:56;29.63;;;19.93;;
2434;SDS011;1228;51.022;6.764;2024-03-08T03:05:25;32.37;;;20.17;;
2434;SDS011;1228;51.022;6.764;2024-03-08T03:07:51;30.47;;;20.80;;
2434;SDS011;1228;51.022;6.764;2024-03-08T03:10:17;31.80;;;21.57;;
2434;SDS011;1228;51.022;6.764;2024-03-08T03:12:43;33.63;;;21.37;;
2434;SDS011;1228;51.022;6.764;2024-03-08T03:15:12;34.30;;;21.30;;
2434;SDS011;1228;51.022;6.764;2024-03-08T03:17:39;32.43;;;20.53;;
2434;SDS011;1228;51.022;6.764;2024-03-08T03:20:06;32.00;;;20.10;;
2434;SDS011;1228;51.022;6.764;2024-03-08T03:22:37;29.13;;;20.17;;
2434;SDS011;1228;51.022;6.764;2024-03-08T03:25:03;30.83;;;20.30;;
2434;SDS011;1228;51.022;6.764;2024-03-08T03:27:31;34.13;;;21.93;;
2434;SDS011;1228;51.022;6.764;2024-03-08T03:29:57;34.73;;;21.93;;
2434;SDS011;1228;51.022;6.764;2024-03-08T03:32:23;35.53;;;21.47;;
2434;SDS011;1228;51.022;6.764;2024-03-08T03:34:48;31.00;;;22.73;;
2434;SDS011;1228;51.022;6.764;2024-03-08T03:37:18;30.50;;;21.83;;
2434;SDS011;1228;51.022;6.764;2024-03-08T03:39:44;32.67;;;22.37;;
2434;SDS011;1228;51.022;6.764;2024-03-08T03:42:18;33.10;;;22.20;;
2434;SDS011;1228;51.022;6.764;2024-03-08T03:44:48;31.93;;;22.20;;
2434;SDS011;1228;51.022;6.764;2024-03-08T03:47:14;36.40;;;22.80;;
2434;SDS011;1228;51.022;6.764;2024-03-08T03:49:40;36.60;;;22.60;;
2434;SDS011;1228;51.022;6.764;2024-03-08T03:52:06;31.33;;;20.30;;
2434;SDS011;1228;51.022;6.764;2024-03-08T03:54:32;32.20;;;22.00;;
2434;SDS011;1228;51.022;6.764;2024-03-08T03:56:58;32.07;;;20.03;;
2434;SDS011;1228;51.022;6.764;2024-03-08T03:59:25;29.23;;;20.57;;
2434;SDS011;1228;51.022;6.764;2024-03-08T04:01:52;32.30;;;21.33;;
2434;SDS011;1228;51.022;6.764;2024-03-08T04:04:18;33.57;;;22.33;;
2434;SDS011;1228;51.022;6.764;2024-03-08T04:06:44;31.53;;;21.37;;
2434;SDS011;1228;51.022;6.764;2024-03-08T04:09:10;30.60;;;21.23;;
2434;SDS011;1228;51.022;6.764;2024-03-08T04:11:37;29.53;;;21.73;;
2434;SDS011;1228;51.022;6.764;2024-03-08T04:14:03;34.07;;;21.60;;
2434;SDS011;1228;51.022;6.764;2024-03-08T04:16:30;34.13;;;21.87;;
2434;SDS011;1228;51.022;6.764;2024-03-08T04:18:56;32.13;;;22.73;;
2434;SDS011;1228;51.022;6.764;2024-03-08T04:21:22;34.73;;;21.50;;
2434;SDS011;1228;51.022;6.764;2024-03-08T04:23:48;32.60;;;22.03;;
2434;SDS011;1228;51.022;6.764;2024-03-08T04:26:13;33.47;;;20.83;;
2434;SDS011;1228;51.022;6.764;2024-03-08T04:28:39;32.33;;;21.73;;
2434;SDS011;1228;51.022;6.764;2024-03-08T04:31:05;36.67;;;21.47;;
2434;SDS011;1228;51.022;6.764;2024-03-08T04:33:31;35.03;;;22.03;;
2434;SDS011;1228;51.022;6.764;2024-03-08T04:35:57;41.17;;;22.13;;
2434;SDS011;1228;51.022;6.764;2024-03-08T04:38:24;32.57;;;20.33;;
2434;SDS011;1228;51.022;6.764;2024-03-08T04:40:50;33.80;;;21.43;;
2434;SDS011;1228;51.022;6.764;2024-03-08T04:43:16;30.20;;;19.20;;
2434;SDS011;1228;51.022;6.764;2024-03-08T04:45:43;30.97;;;21.00;;
2434;SDS011;1228;51.022;6.764;2024-03-08T04:48:09;28.80;;;20.90;;
2434;SDS011;1228;51.022;6.764;2024-03-08T04:50:36;31.33;;;20.60;;
2434;SDS011;1228;51.022;6.764;2024-03-08T04:53:03;34.07;;;22.40;;
2434;SDS011;1228;51.022;6.764;2024-03-08T04:55:33;30.53;;;20.77;;
2434;SDS011;1228;51.022;6.764;2024-03-08T04:57:59;35.10;;;21.47;;
2434;SDS011;1228;51.022;6.764;2024-03-08T05:00:24;31.87;;;20.50;;
2434;SDS011;1228;51.022;6.764;2024-03-08T05:02:51;36.33;;;21.03;;
2434;SDS011;1228;51.022;6.764;2024-03-08T05:05:18;30.77;;;21.33;;
2434;SDS011;1228;51.022;6.764;2024-03-08T05:07:44;34.37;;;22.23;;
2434;SDS011;1228;51.022;6.764;2024-03-08T05:10:10;28.80;;;19.77;;
2434;SDS011;1228;51.022;6.764;2024-03-08T05:12:36;31.20;;;20.33;;
2434;SDS011;1228;51.022;6.764;2024-03-08T05:15:04;26.70;;;21.07;;
2434;SDS011;1228;51.022;6.764;2024-03-08T05:17:32;32.70;;;21.23;;
2434;SDS011;1228;51.022;6.764;2024-03-08T05:19:57;31.13;;;20.27;;
2434;SDS011;1228;51.022;6.764;2024-03-08T05:22:23;30.30;;;21.20;;
2434;SDS011;1228;51.022;6.764;2024-03-08T05:24:49;33.07;;;20.17;;
2434;SDS011;1228;51.022;6.764;2024-03-08T05:27:14;35.30;;;21.20;;
2434;SDS011;1228;51.022;6.764;2024-03-08T05:29:40;30.17;;;21.30;;
2434;SDS011;1228;51.022;6.764;2024-03-08T05:32:05;30.87;;;21.27;;
2434;SDS011;1228;51.022;6.764;2024-03-08T05:34:32;34.97;;;21.77;;
2434;SDS011;1228;51.022;6.764;2024-03-08T05:36:59;33.87;;;20.67;;
2434;SDS011;1228;51.022;6.764;2024-03-08T05:39:25;32.47;;;20.57;;
2434;SDS011;1228;51.022;6.764;2024-03-08T05:41:51;33.77;;;20.93;;
2434;SDS011;1228;51.022;6.764;2024-03-08T05:44:16;27.47;;;19.60;;
2434;SDS011;1228;51.022;6.764;2024-03-08T05:46:42;32.87;;;21.07;;
2434;SDS011;1228;51.022;6.764;2024-03-08T05:49:09;35.87;;;20.73;;
2434;SDS011;1228;51.022;6.764;2024-03-08T05:51:36;32.47;;;22.03;;
2434;SDS011;1228;51.022;6.764;2024-03-08T05:54:06;32.40;;;21.93;;
2434;SDS011;1228;51.022;6.764;2024-03-08T05:56:36;36.87;;;20.80;;
2434;SDS011;1228;51.022;6.764;2024-03-08T05:59:03;34.50;;;21.13;;
2434;SDS011;1228;51.022;6.764;2024-03-08T06:01:29;37.53;;;22.63;;
2434;SDS011;1228;51.022;6.764;2024-03-08T06:03:55;34.63;;;22.30;;
2434;SDS011;1228;51.022;6.764;2024-03-08T06:06:25;29.60;;;21.33;;
2434;SDS011;1228;51.022;6.764;2024-03-08T06:08:51;33.00;;;20.37;;
2434;SDS011;1228;51.022;6.764;2024-03-08T06:11:17;28.57;;;21.23;;
2434;SDS011;1228;51.022;6.764;2024-03-08T06:13:45;32.80;;;20.97;;
2434;SDS011;1228;51.022;6.764;2024-03-08T06:16:12;34.40;;;21.73;;
2434;SDS011;1228;51.022;6.764;2024-03-08T06:18:38;32.23;;;20.17;;
2434;SDS011;1228;51.022;6.764;2024-03-08T06:21:07;34.97;;;21.67;;
2434;SDS011;1228;51.022;6.764;2024-03-08T06:23:46;34.37;;;22.23;;
2434;SDS011;1228;51.022;6.764;2024-03-08T06:26:12;34.33;;;22.13;;
2434;SDS011;1228;51.022;6.764;2024-03-08T06:28:38;35.70;;;21.83;;
2434;SDS011;1228;51.022;6.764;2024-03-08T06:31:05;32.87;;;21.73;;
2434;SDS011;1228;51.022;6.764;2024-03-08T06:33:32;33.83;;;22.33;;
2434;SDS011;1228;51.022;6.764;2024-03-08T06:35:57;36.27;;;21.50;;
2434;SDS011;1228;51.022;6.764;2024-03-08T06:38:24;34.93;;;21.70;;
2434;SDS011;1228;51.022;6.764;2024-03-08T06:40:50;33.43;;;20.83;;
2434;SDS011;1228;51.022;6.764;2024-03-08T06:43:17;32.57;;;21.50;;
2434;SDS011;1228;51.022;6.764;2024-03-08T06:45:43;31.43;;;22.27;;
2434;SDS011;1228;51.022;6.764;2024-03-08T06:48:13;33.23;;;22.33;;
2434;SDS011;1228;51.022;6.764;2024-03-08T06:50:40;31.60;;;20.50;;
2434;SDS011;1228;51.022;6.764;2024-03-08T06:53:05;35.30;;;22.30;;
2434;SDS011;1228;51.022;6.764;2024-03-08T06:55:31;36.47;;;21.60;;
2434;SDS011;1228;51.022;6.764;2024-03-08T06:57:58;39.03;;;22.17;;
2434;SDS011;1228;51.022;6.764;2024-03-08T07:00:23;35.73;;;21.27;;
2434;SDS011;1228;51.022;6.764;2024-03-08T07:02:52;33.77;;;22.33;;
2434;SDS011;1228;51.022;6.764;2024-03-08T07:05:18;33.27;;;21.97;;
2434;SDS011;1228;51.022;6.764;2024-03-08T07:07:44;44.47;;;21.20;;
2434;SDS011;1228;51.022;6.764;2024-03-08T07:10:13;32.47;;;20.63;;
2434;SDS011;1228;51.022;6.764;2024-03-08T07:12:40;32.77;;;21.53;;
2434;SDS011;1228;51.022;6.764;2024-03-08T07:15:07;35.03;;;21.67;;
2434;SDS011;1228;51.022;6.764;2024-03-08T07:17:33;32.83;;;20.73;;
2434;SDS011;1228;51.022;6.764;2024-03-08T07:20:00;29.60;;;20.13;;
2434;SDS011;1228;51.022;6.764;2024-03-08T07:22:31;30.37;;;19.57;;
2434;SDS011;1228;51.022;6.764;2024-03-08T07:24:56;26.70;;;18.87;;
2434;SDS011;1228;51.022;6.764;2024-03-08T07:27:40;29.17;;;18.37;;
2434;SDS011;1228;51.022;6.764;2024-03-08T07:30:06;27.27;;;18.70;;
2434;SDS011;1228;51.022;6.764;2024-03-08T07:32:35;25.63;;;17.47;;
2434;SDS011;1228;51.022;6.764;2024-03-08T07:35:01;29.53;;;19.20;;
2434;SDS011;1228;51.022;6.764;2024-03-08T07:37:27;26.10;;;17.90;;
2434;SDS011;1228;51.022;6.764;2024-03-08T07:39:52;22.20;;;16.47;;
2434;SDS011;1228;51.022;6.764;2024-03-08T07:42:18;25.20;;;18.90;;
2434;SDS011;1228;51.022;6.764;2024-03-08T07:44:43;25.87;;;18.30;;
2434;SDS011;1228;51.022;6.764;2024-03-08T07:47:10;31.03;;;18.97;;
2434;SDS011;1228;51.022;6.764;2024-03-08T07:49:37;23.63;;;17.17;;
2434;SDS011;1228;51.022;6.764;2024-03-08T07:52:03;26.33;;;16.83;;
2434;SDS011;1228;51.022;6.764;2024-03-08T07:54:30;24.73;;;17.50;;
2434;SDS011;1228;51.022;6.764;2024-03-08T07:56:55;24.93;;;17.00;;
2434;SDS011;1228;51.022;6.764;2024-03-08T07:59:22;23.87;;;18.50;;
2434;SDS011;1228;51.022;6.764;2024-03-08T08:01:47;24.67;;;17.33;;
2434;SDS011;1228;51.022;6.764;2024-03-08T08:04:13;26.07;;;16.70;;
2434;SDS011;1228;51.022;6.764;2024-03-08T08:06:39;28.67;;;17.10;;
2434;SDS011;1228;51.022;6.764;2024-03-08T08:09:08;25.53;;;17.03;;
2434;SDS011;1228;51.022;6.764;2024-03-08T08:11:40;23.00;;;15.80;;
2434;SDS011;1228;51.022;6.764;2024-03-08T08:14:08;26.57;;;17.50;;
2434;SDS011;1228;51.022;6.764;2024-03-08T08:16:35;25.07;;;16.03;;
2434;SDS011;1228;51.022;6.764;2024-03-08T08:19:06;22.40;;;16.60;;
2434;SDS011;1228;51.022;6.764;2024-03-08T08:21:35;24.47;;;16.63;;
2434;SDS011;1228;51.022;6.764;2024-03-08T08:24:04;20.63;;;15.27;;
2434;SDS011;1228;51.022;6.764;2024-03-08T08:26:30;21.80;;;15.90;;
2434;SDS011;1228;51.022;6.764;2024-03-08T08:28:55;20.57;;;15.37;;
2434;SDS011;1228;51.022;6.764;2024-03-08T08:31:22;22.50;;;16.13;;
2434;SDS011;1228;51.022;6.764;2024-03-08T08:33:48;23.50;;;15.93;;
2434;SDS011;1228;51.022;6.764;2024-03-08T08:36:14;21.73;;;14.87;;
2434;SDS011;1228;51.022;6.764;2024-03-08T08:38:40;24.57;;;16.27;;
2434;SDS011;1228;51.022;6.764;2024-03-08T08:41:09;19.10;;;15.00;;
2434;SDS011;1228;51.022;6.764;2024-03-08T08:43:36;20.93;;;15.23;;
2434;SDS011;1228;51.022;6.764;2024-03-08T08:46:01;20.00;;;15.23;;
2434;SDS011;1228;51.022;6.764;2024-03-08T08:48:27;23.00;;;15.10;;
2434;SDS011;1228;51.022;6.764;2024-03-08T08:50:55;23.77;;;15.37;;
2434;SDS011;1228;51.022;6.764;2024-03-08T08:53:21;20.33;;;15.33;;
2434;SDS011;1228;51.022;6.764;2024-03-08T08:55:47;21.87;;;15.20;;
2434;SDS011;1228;51.022;6.764;2024-03-08T08:58:13;21.80;;;14.90;;
2434;SDS011;1228;51.022;6.764;2024-03-08T09:00:39;20.20;;;13.87;;
2434;SDS011;1228;51.022;6.764;2024-03-08T09:03:05;20.33;;;14.47;;
2434;SDS011;1228;51.022;6.764;2024-03-08T09:05:37;22.87;;;14.50;;
2434;SDS011;1228;51.022;6.764;2024-03-08T09:08:02;20.23;;;13.73;;
2434;SDS011;1228;51.022;6.764;2024-03-08T09:10:28;17.43;;;13.70;;
2434;SDS011;1228;51.022;6.764;2024-03-08T09:12:54;23.37;;;14.20;;
2434;SDS011;1228;51.022;6.764;2024-03-08T09:15:19;21.87;;;14.60;;
2434;SDS011;1228;51.022;6.764;2024-03-08T09:17:47;19.50;;;14.80;;
2434;SDS011;1228;51.022;6.764;2024-03-08T09:20:13;21.33;;;14.40;;
2434;SDS011;1228;51.022;6.764;2024-03-08T09:22:40;19.60;;;13.80;;
2434;SDS011;1228;51.022;6.764;2024-03-08T09:25:10;18.37;;;14.10;;
2434;SDS011;1228;51.022;6.764;2024-03-08T09:27:36;20.30;;;13.63;;
2434;SDS011;1228;51.022;6.764;2024-03-08T09:30:02;20.23;;;13.73;;
2434;SDS011;1228;51.022;6.764;2024-03-08T09:32:29;21.63;;;14.10;;
2434;SDS011;1228;51.022;6.764;2024-03-08T09:34:55;19.17;;;13.47;;
2434;SDS011;1228;51.022;6.764;2024-03-08T09:37:21;17.43;;;13.87;;
2434;SDS011;1228;51.022;6.764;2024-03-08T09:39:48;19.30;;;13.13;;
2434;SDS011;1228;51.022;6.764;2024-03-08T09:42:15;21.27;;;13.60;;
2434;SDS011;1228;51.022;6.764;2024-03-08T09:44:46;18.70;;;13.40;;
2434;SDS011;1228;51.022;6.764;2024-03-08T09:47:13;25.30;;;14.33;;
2434;SDS011;1228;51.022;6.764;2024-03-08T09:49:39;23.50;;;14.13;;
2434;SDS011;1228;51.022;6.764;2024-03-08T09:52:07;20.30;;;14.07;;
2434;SDS011;1228;51.022;6.764;2024-03-08T09:54:33;17.50;;;13.73;;
2434;SDS011;1228;51.022;6.764;2024-03-08T09:56:59;19.10;;;13.80;;
2434;SDS011;1228;51.022;6.764;2024-03-08T09:59:24;17.77;;;13.03;;
2434;SDS011;1228;51.022;6.764;2024-03-08T10:02:09;22.00;;;14.27;;
2434;SDS011;1228;51.022;6.764;2024-03-08T10:04:39;16.27;;;12.03;;
2434;SDS011;1228;51.022;6.764;2024-03-08T10:07:11;17.30;;;12.77;;
2434;SDS011;1228;51.022;6.764;2024-03-08T10:09:38;20.20;;;13.27;;
2434;SDS011;1228;51.022;6.764;2024-03-08T10:12:04;16.40;;;12.17;;
2434;SDS011;1228;51.022;6.764;2024-03-08T10:14:32;18.67;;;12.53;;
2434;SDS011;1228;51.022;6.764;2024-03-08T10:16:58;13.77;;;11.33;;
2434;SDS011;1228;51.022;6.764;2024-03-08T10:19:25;16.53;;;12.33;;
2434;SDS011;1228;51.022;6.764;2024-03-08T10:21:51;19.53;;;13.43;;
2434;SDS011;1228;51.022;6.764;2024-03-08T10:24:22;16.43;;;12.10;;
2434;SDS011;1228;51.022;6.764;2024-03-08T10:26:52;15.77;;;12.67;;
2434;SDS011;1228;51.022;6.764;2024-03-08T10:29:18;15.23;;;11.80;;
2434;SDS011;1228;51.022;6.764;2024-03-08T10:31:44;19.20;;;12.50;;
2434;SDS011;1228;51.022;6.764;2024-03-08T10:34:10;16.60;;;12.23;;
2434;SDS011;1228;51.022;6.764;2024-03-08T10:36:36;17.83;;;12.60;;
2434;SDS011;1228;51.022;6.764;2024-03-08T10:39:03;17.07;;;11.67;;
2434;SDS011;1228;51.022;6.764;2024-03-08T10:41:33;14.47;;;11.67;;
2434;SDS011;1228;51.022;6.764;2024-03-08T10:49:14;13.27;;;10.63;;
2434;SDS011;1228;51.022;6.764;2024-03-08T10:51:42;13.10;;;10.30;;
2434;SDS011;1228;51.022;6.764;2024-03-08T10:54:11;12.83;;;11.63;;
2434;SDS011;1228;51.022;6.764;2024-03-08T10:56:43;15.03;;;9.47;;
2434;SDS011;1228;51.022;6.764;2024-03-08T10:59:08;11.33;;;9.10;;
2434;SDS011;1228;51.022;6.764;2024-03-08T11:01:35;13.37;;;9.53;;
2434;SDS011;1228;51.022;6.764;2024-03-08T11:04:04;12.13;;;9.13;;
2434;SDS011;1228;51.022;6.764;2024-03-08T11:06:51;11.43;;;9.23;;
2434;SDS011;1228;51.022;6.764;2024-03-08T11:09:30;10.37;;;9.37;;
2434;SDS011;1228;51.022;6.764;2024-03-08T11:15:01;11.07;;;9.17;;
2434;SDS011;1228;51.022;6.764;2024-03-08T11:17:40;9.50;;;8.50;;
2434;SDS011;1228;51.022;6.764;2024-03-08T11:20:11;18.10;;;8.90;;
2434;SDS011;1228;51.022;6.764;2024-03-08T11:22:42;9.63;;;7.60;;
2434;SDS011;1228;51.022;6.764;2024-03-08T11:30:44;11.53;;;9.17;;
2434;SDS011;1228;51.022;6.764;2024-03-08T11:33:16;11.27;;;9.20;;
2434;SDS011;1228;51.022;6.764;2024-03-08T11:35:42;10.67;;;9.03;;
2434;SDS011;1228;51.022;6.764;2024-03-08T11:38:10;10.67;;;8.50;;
2434;SDS011;1228;51.022;6.764;2024-03-08T11:40:38;10.93;;;9.40;;
2434;SDS011;1228;51.022;6.764;2024-03-08T11:43:05;10.97;;;8.23;;
2434;SDS011;1228;51.022;6.764;2024-03-08T11:45:33;12.53;;;9.00;;
2434;SDS011;1228;51.022;6.764;2024-03-08T11:48:02;16.97;;;9.77;;
2434;SDS011;1228;51.022;6.764;2024-03-08T11:50:29;11.30;;;9.07;;
2434;SDS011;1228;51.022;6.764;2024-03-08T11:53:00;11.93;;;9.57;;
2434;SDS011;1228;51.022;6.764;2024-03-08T11:55:27;11.70;;;9.23;;
2434;SDS011;1228;51.022;6.764;2024-03-08T11:58:03;9.70;;;8.30;;
2434;SDS011;1228;51.022;6.764;2024-03-08T12:00:33;10.60;;;8.80;;
2434;SDS011;1228;51.022;6.764;2024-03-08T12:03:03;11.23;;;9.07;;
2434;SDS011;1228;51.022;6.764;2024-03-08T12:05:31;11.77;;;9.43;;
2434;SDS011;1228;51.022;6.764;2024-03-08T12:08:00;12.17;;;9.63;;
2434;SDS011;1228;51.022;6.764;2024-03-08T12:10:26;11.60;;;9.40;;
2434;SDS011;1228;51.022;6.764;2024-03-08T12:12:53;14.70;;;9.23;;
2434;SDS011;1228;51.022;6.764;2024-03-08T12:15:21;12.30;;;9.07;;
2434;SDS011;1228;51.022;6.764;2024-03-08T12:17:49;11.97;;;9.00;;
2434;SDS011;1228;51.022;6.764;2024-03-08T12:22:43;10.37;;;8.40;;
2434;SDS011;1228;51.022;6.764;2024-03-08T12:25:12;9.80;;;8.33;;
2434;SDS011;1228;51.022;6.764;2024-03-08T12:27:39;12.33;;;9.17;;
2434;SDS011;1228;51.022;6.764;2024-03-08T12:30:19;10.57;;;8.77;;
2434;SDS011;1228;51.022;6.764;2024-03-08T12:32:58;11.93;;;9.33;;
2434;SDS011;1228;51.022;6.764;2024-03-08T12:35:29;10.47;;;8.77;;
2434;SDS011;1228;51.022;6.764;2024-03-08T12:37:56;12.30;;;8.57;;
2434;SDS011;1228;51.022;6.764;2024-03-08T12:40:26;10.07;;;8.10;;
2434;SDS011;1228;51.022;6.764;2024-03-08T12:42:52;10.23;;;8.63;;
2434;SDS011;1228;51.022;6.764;2024-03-08T12:45:18;10.37;;;7.80;;
2434;SDS011;1228;51.022;6.764;2024-03-08T12:47:43;10.60;;;8.93;;
2434;SDS011;1228;51.022;6.764;2024-03-08T12:50:10;10.97;;;8.90;;
2434;SDS011;1228;51.022;6.764;2024-03-08T12:52:36;10.97;;;8.37;;
2434;SDS011;1228;51.022;6.764;2024-03-08T12:55:01;12.07;;;9.00;;
2434;SDS011;1228;51.022;6.764;2024-03-08T12:57:27;11.60;;;8.60;;
2434;SDS011;1228;51.022;6.764;2024-03-08T12:59:53;10.37;;;8.00;;
2434;SDS011;1228;51.022;6.764;2024-03-08T13:02:19;12.00;;;9.17;;
2434;SDS011;1228;51.022;6.764;2024-03-08T13:04:45;12.17;;;8.97;;
2434;SDS011;1228;51.022;6.764;2024-03-08T13:07:20;11.67;;;9.00;;
2434;SDS011;1228;51.022;6.764;2024-03-08T13:09:46;13.50;;;10.00;;
2434;SDS011;1228;51.022;6.764;2024-03-08T13:12:12;11.13;;;8.90;;
2434;SDS011;1228;51.022;6.764;2024-03-08T13:14:40;9.40;;;8.40;;
2434;SDS011;1228;51.022;6.764;2024-03-08T13:17:06;10.03;;;8.20;;
2434;SDS011;1228;51.022;6.764;2024-03-08T13:19:35;10.20;;;8.90;;
2434;SDS011;1228;51.022;6.764;2024-03-08T13:22:03;10.63;;;8.60;;
2434;SDS011;1228;51.022;6.764;2024-03-08T13:24:32;11.10;;;9.20;;
2434;SDS011;1228;51.022;6.764;2024-03-08T13:27:01;12.03;;;9.63;;
2434;SDS011;1228;51.022;6.764;2024-03-08T13:29:27;11.53;;;8.07;;
2434;SDS011;1228;51.022;6.764;2024-03-08T13:31:52;12.27;;;9.20;;
2434;SDS011;1228;51.022;6.764;2024-03-08T13:34:20;10.27;;;8.20;;
2434;SDS011;1228;51.022;6.764;2024-03-08T13:36:54;13.90;;;9.43;;
2434;SDS011;1228;51.022;6.764;2024-03-08T13:39:24;13.10;;;8.67;;
2434;SDS011;1228;51.022;6.764;2024-03-08T13:41:51;11.47;;;8.87;;
2434;SDS011;1228;51.022;6.764;2024-03-08T13:44:16;9.10;;;7.90;;
2434;SDS011;1228;51.022;6.764;2024-03-08T13:46:42;11.97;;;9.33;;
2434;SDS011;1228;51.022;6.764;2024-03-08T13:49:10;12.87;;;9.10;;
2434;SDS011;1228;51.022;6.764;2024-03-08T13:51:36;11.20;;;8.70;;
2434;SDS011;1228;51.022;6.764;2024-03-08T13:54:02;12.87;;;9.23;;
2434;SDS011;1228;51.022;6.764;2024-03-08T13:56:27;11.90;;;8.90;;
2434;SDS011;1228;51.022;6.764;2024-03-08T13:58:57;11.43;;;9.13;;
2434;SDS011;1228;51.022;6.764;2024-03-08T14:01:23;11.13;;;9.20;;
2434;SDS011;1228;51.022;6.764;2024-03-08T14:03:48;12.30;;;8.43;;
2434;SDS011;1228;51.022;6.764;2024-03-08T14:06:14;10.17;;;8.97;;
2434;SDS011;1228;51.022;6.764;2024-03-08T14:08:40;17.50;;;9.13;;
2434;SDS011;1228;51.022;6.764;2024-03-08T14:11:05;10.43;;;8.80;;
2434;SDS011;1228;51.022;6.764;2024-03-08T14:13:44;9.43;;;8.43;;
2434;SDS011;1228;51.022;6.764;2024-03-08T14:16:11;9.93;;;8.47;;
2434;SDS011;1228;51.022;6.764;2024-03-08T14:18:37;11.10;;;8.40;;
2434;SDS011;1228;51.022;6.764;2024-03-08T14:21:03;11.50;;;8.53;;
2434;SDS011;1228;51.022;6.764;2024-03-08T14:23:30;9.63;;;8.20;;
2434;SDS011;1228;51.022;6.764;2024-03-08T14:25:57;10.27;;;9.13;;
2434;SDS011;1228;51.022;6.764;2024-03-08T14:28:24;10.57;;;8.27;;
2434;SDS011;1228;51.022;6.764;2024-03-08T14:30:52;14.67;;;8.27;;
2434;SDS011;1228;51.022;6.764;2024-03-08T14:33:18;9.67;;;7.73;;
2434;SDS011;1228;51.022;6.764;2024-03-08T14:35:44;9.60;;;7.97;;
2434;SDS011;1228;51.022;6.764;2024-03-08T14:38:12;10.80;;;7.57;;
2434;SDS011;1228;51.022;6.764;2024-03-08T14:40:38;9.70;;;8.17;;
2434;SDS011;1228;51.022;6.764;2024-03-08T14:43:05;9.83;;;8.50;;
2434;SDS011;1228;51.022;6.764;2024-03-08T14:45:31;9.77;;;7.80;;
2434;SDS011;1228;51.022;6.764;2024-03-08T14:47:57;10.53;;;8.23;;
2434;SDS011;1228;51.022;6.764;2024-03-08T14:50:24;9.90;;;7.70;;
2434;SDS011;1228;51.022;6.764;2024-03-08T14:52:50;11.23;;;8.40;;
2434;SDS011;1228;51.022;6.764;2024-03-08T14:55:17;9.80;;;7.70;;
2434;SDS011;1228;51.022;6.764;2024-03-08T14:57:46;9.33;;;8.10;;
2434;SDS011;1228;51.022;6.764;2024-03-08T15:00:19;13.77;;;8.90;;
2434;SDS011;1228;51.022;6.764;2024-03-08T15:03:02;10.47;;;8.37;;
2434;SDS011;1228;51.022;6.764;2024-03-08T15:05:29;12.37;;;9.60;;
2434;SDS011;1228;51.022;6.764;2024-03-08T15:07:57;12.90;;;8.97;;
2434;SDS011;1228;51.022;6.764;2024-03-08T15:10:28;11.03;;;8.47;;
2434;SDS011;1228;51.022;6.764;2024-03-08T15:12:58;11.03;;;9.10;;